createdAt,value
2018-05-25T00:02:17.674Z,86.08
2018-05-25T00:04:46.884Z,85.95
2018-05-25T00:07:15.299Z,85.72
2018-05-25T00:09:43.740Z,86.14
2018-05-25T00:12:12.903Z,85.95
2018-05-25T00:14:41.343Z,85.83
2018-05-25T00:17:09.739Z,85.32
2018-05-25T00:19:38.173Z,84.77
2018-05-25T00:22:06.594Z,84.71
2018-05-25T00:24:35.019Z,84.68
2018-05-25T00:27:03.418Z,84.71
2018-05-25T00:29:31.920Z,84.91
2018-05-25T00:32:00.328Z,84.77
2018-05-25T00:34:28.766Z,84.42
2018-05-25T00:36:57.184Z,83.83
2018-05-25T00:39:26.392Z,83.80
2018-05-25T00:41:55.584Z,84.16
2018-05-25T00:44:24.786Z,84.43
2018-05-25T00:46:53.224Z,84.71
2018-05-25T00:49:21.673Z,84.74
2018-05-25T00:51:50.082Z,84.85
2018-05-25T00:54:18.527Z,84.71
2018-05-25T00:56:47.699Z,84.52
2018-05-25T00:59:16.143Z,84.36
2018-05-25T01:01:44.575Z,84.14
2018-05-25T01:04:13.016Z,84.30
2018-05-25T01:06:41.428Z,84.16
2018-05-25T01:09:09.869Z,84.81
2018-05-25T01:11:38.329Z,84.91
2018-05-25T01:14:07.517Z,85.16
2018-05-25T01:16:35.975Z,84.92
2018-05-25T01:19:04.412Z,84.49
2018-05-25T01:21:33.649Z,84.83
2018-05-25T01:24:02.090Z,84.36
2018-05-25T01:26:31.293Z,83.86
2018-05-25T01:29:00.486Z,83.79
2018-05-25T01:31:28.917Z,83.89
2018-05-25T01:33:57.338Z,83.99
2018-05-25T01:36:25.796Z,84.30
2018-05-25T01:38:54.207Z,84.52
2018-05-25T01:41:22.651Z,84.64
2018-05-25T01:43:51.064Z,84.89
2018-05-25T01:46:19.579Z,84.65
2018-05-25T01:48:48.787Z,84.37
2018-05-25T01:51:17.991Z,84.16
2018-05-25T01:53:46.438Z,84.12
2018-05-25T01:56:14.894Z,84.07
2018-05-25T01:58:43.311Z,84.02
2018-05-25T02:01:11.753Z,83.77
2018-05-25T02:03:40.190Z,84.07
2018-05-25T02:06:08.648Z,84.44
2018-05-25T02:08:37.066Z,84.55
2018-05-25T02:11:05.509Z,84.89
2018-05-25T02:13:33.936Z,85.31
2018-05-25T02:16:02.388Z,85.57
2018-05-25T02:18:30.809Z,85.49
2018-05-25T02:21:00.053Z,85.10
2018-05-25T02:23:28.471Z,84.79
2018-05-25T02:25:56.912Z,84.85
2018-05-25T02:28:25.332Z,85.28
2018-05-25T02:30:53.788Z,85.39
2018-05-25T02:33:22.193Z,85.48
2018-05-25T02:35:50.657Z,85.51
2018-05-25T02:38:19.060Z,85.49
2018-05-25T02:40:47.512Z,85.70
2018-05-25T02:43:15.918Z,85.94
2018-05-25T02:45:44.397Z,86.28
2018-05-25T02:48:12.797Z,86.41
2018-05-25T02:50:41.245Z,86.85
2018-05-25T02:53:09.667Z,86.70
2018-05-25T02:55:38.123Z,86.70
2018-05-25T02:58:06.534Z,87.17
2018-05-25T03:00:34.998Z,86.83
2018-05-25T03:03:03.507Z,86.47
2018-05-25T03:05:31.963Z,85.91
2018-05-25T03:08:00.395Z,85.61
2018-05-25T03:10:28.813Z,85.36
2018-05-25T03:12:57.251Z,85.19
2018-05-25T03:15:25.665Z,85.58
2018-05-25T03:17:54.124Z,85.98
2018-05-25T03:20:22.540Z,85.71
2018-05-25T03:22:51.747Z,86.39
2018-05-25T03:25:20.951Z,86.46
2018-05-25T03:27:50.163Z,86.71
2018-05-25T03:30:18.589Z,86.75
2018-05-25T03:32:47.036Z,86.84
2018-05-25T03:35:15.460Z,87.05
2018-05-25T03:37:43.904Z,87.37
2018-05-25T03:40:12.327Z,87.25
2018-05-25T03:42:40.769Z,87.68
2018-05-25T03:45:09.176Z,87.98
2018-05-25T03:47:37.632Z,88.03
2018-05-25T03:50:06.065Z,87.87
2018-05-25T03:52:34.569Z,87.67
2018-05-25T03:55:02.998Z,87.68
2018-05-25T03:57:31.445Z,87.69
2018-05-25T04:00:17.686Z,87.96
2018-05-25T04:02:46.133Z,88.45
2018-05-25T04:05:15.416Z,88.62
2018-05-25T04:07:43.863Z,88.68
2018-05-25T04:10:12.282Z,88.70
2018-05-25T04:12:40.730Z,88.75
2018-05-25T04:15:09.134Z,88.82
2018-05-25T04:17:37.576Z,88.70
2018-05-25T04:20:05.993Z,88.60
2018-05-25T04:22:34.466Z,88.61
2018-05-25T04:25:02.906Z,88.69
2018-05-25T04:27:32.128Z,88.76
2018-05-25T04:30:01.328Z,88.96
2018-05-25T04:32:30.555Z,89.03
2018-05-25T04:34:58.988Z,89.28
2018-05-25T04:37:27.445Z,89.61
2018-05-25T04:39:55.861Z,89.57
2018-05-25T04:42:24.294Z,89.54
2018-05-25T04:44:53.477Z,89.08
2018-05-25T04:47:21.960Z,89.01
2018-05-25T04:49:50.379Z,88.85
2018-05-25T04:52:18.831Z,88.75
2018-05-25T04:54:47.256Z,88.78
2018-05-25T04:57:15.661Z,88.86
2018-05-25T04:59:44.111Z,88.63
2018-05-25T05:02:12.514Z,88.33
2018-05-25T05:04:40.956Z,87.89
2018-05-25T05:07:09.381Z,87.61
2018-05-25T05:09:37.821Z,87.62
2018-05-25T05:12:06.254Z,87.69
2018-05-25T05:14:34.702Z,87.52
2018-05-25T05:17:03.104Z,87.38
2018-05-25T05:19:31.560Z,86.85
2018-05-25T05:21:59.989Z,86.91
2018-05-25T05:24:28.424Z,86.76
2018-05-25T05:26:56.835Z,86.53
2018-05-25T05:29:25.282Z,86.27
2018-05-25T05:31:54.486Z,85.96
2018-05-25T05:34:23.704Z,85.48
2018-05-25T05:36:52.120Z,85.69
2018-05-25T05:39:20.590Z,85.48
2018-05-25T05:41:49.013Z,84.97
2018-05-25T05:44:17.471Z,84.62
2018-05-25T05:46:45.895Z,83.95
2018-05-25T05:49:14.345Z,83.16
2018-05-25T05:51:42.768Z,82.82
2018-05-25T05:54:11.973Z,81.81
2018-05-25T05:56:41.172Z,80.80
2018-05-25T05:59:10.390Z,78.98
2018-05-25T06:01:39.582Z,79.20
2018-05-25T06:04:08.805Z,77.92
2018-05-25T06:06:37.215Z,76.90
2018-05-25T06:09:06.525Z,75.57
2018-05-25T06:11:34.969Z,75.81
2018-05-25T06:14:03.433Z,75.97
2018-05-25T06:16:32.623Z,76.42
2018-05-25T06:19:01.076Z,75.70
2018-05-25T06:21:29.490Z,74.32
2018-05-25T06:23:57.959Z,75.22
2018-05-25T06:26:26.378Z,74.11
2018-05-25T06:28:55.623Z,74.25
2018-05-25T06:31:24.039Z,74.12
2018-05-25T06:33:52.471Z,72.84
2018-05-25T06:36:20.896Z,73.98
2018-05-25T06:38:49.362Z,73.20
2018-05-25T06:41:17.777Z,71.74
2018-05-25T06:43:46.223Z,72.73
2018-05-25T06:46:14.651Z,71.79
2018-05-25T06:48:43.105Z,69.33
2018-05-25T06:51:11.511Z,69.58
2018-05-25T06:53:39.968Z,72.05
2018-05-25T06:56:08.391Z,69.64
2018-05-25T06:58:36.851Z,67.92
2018-05-25T07:01:05.276Z,68.52
2018-05-25T07:03:34.503Z,70.58
2018-05-25T07:06:02.938Z,67.70
2018-05-25T07:08:31.365Z,69.98
2018-05-25T07:10:59.815Z,68.81
2018-05-25T07:13:28.247Z,71.13
2018-05-25T07:15:56.695Z,67.30
2018-05-25T07:18:25.110Z,68.32
2018-05-25T07:20:53.544Z,68.09
2018-05-25T07:23:21.948Z,67.90
2018-05-25T07:25:50.378Z,68.53
2018-05-25T07:28:19.546Z,67.11
2018-05-25T07:30:48.746Z,67.29
2018-05-25T07:33:17.973Z,69.68
2018-05-25T07:35:47.159Z,65.92
2018-05-25T07:38:15.579Z,65.35
2018-05-25T07:40:44.051Z,67.72
2018-05-25T07:43:13.204Z,67.20
2018-05-25T07:45:41.646Z,62.42
2018-05-25T07:48:10.051Z,65.31
2018-05-25T07:50:38.474Z,65.87
2018-05-25T07:53:07.640Z,65.34
2018-05-25T07:55:36.068Z,65.77
2018-05-25T07:58:05.238Z,61.39
2018-05-25T08:00:33.674Z,62.51
2018-05-25T08:03:02.080Z,63.48
2018-05-25T08:05:30.519Z,60.20
2018-05-25T08:07:59.713Z,64.68
2018-05-25T08:10:28.915Z,61.92
2018-05-25T08:12:58.086Z,61.60
2018-05-25T08:15:26.511Z,57.44
2018-05-25T08:17:55.671Z,55.76
2018-05-25T08:20:24.120Z,58.25
2018-05-25T08:22:52.515Z,59.62
2018-05-25T08:25:20.954Z,60.29
2018-05-25T08:27:50.131Z,62.13
2018-05-25T08:30:18.559Z,58.87
2018-05-25T08:32:46.973Z,61.67
2018-05-25T08:35:15.398Z,59.92
2018-05-25T08:37:43.798Z,62.63
2018-05-25T08:40:12.274Z,61.97
2018-05-25T08:42:41.450Z,62.80
2018-05-25T08:45:09.879Z,62.26
2018-05-25T08:47:38.277Z,61.33
2018-05-25T08:50:06.719Z,57.35
2018-05-25T08:52:35.133Z,57.58
2018-05-25T08:55:03.609Z,60.71
2018-05-25T08:57:32.039Z,55.69
2018-05-25T09:00:00.477Z,58.09
2018-05-25T09:02:28.902Z,55.78
2018-05-25T09:04:57.358Z,57.75
2018-05-25T09:07:25.884Z,59.67
2018-05-25T09:09:54.302Z,55.98
2018-05-25T09:12:22.786Z,58.11
2018-05-25T09:14:51.193Z,54.71
2018-05-25T09:17:19.627Z,54.81
2018-05-25T09:19:48.029Z,56.47
2018-05-25T09:22:16.479Z,55.61
2018-05-25T09:24:44.874Z,55.36
2018-05-25T09:27:13.311Z,52.92
2018-05-25T09:29:41.779Z,57.28
2018-05-25T09:32:10.978Z,54.39
2018-05-25T09:34:39.392Z,57.61
2018-05-25T09:37:07.843Z,53.91
2018-05-25T09:39:36.246Z,54.13
2018-05-25T09:42:05.479Z,55.31
2018-05-25T09:44:33.898Z,55.51
2018-05-25T09:47:02.344Z,59.18
2018-05-25T09:49:30.768Z,56.89
2018-05-25T09:51:59.208Z,57.64
2018-05-25T09:54:27.613Z,56.88
2018-05-25T09:57:01.939Z,57.45
2018-05-25T09:59:30.373Z,60.32
2018-05-25T10:01:58.827Z,57.46
2018-05-25T10:04:27.240Z,56.30
2018-05-25T10:06:55.685Z,54.78
2018-05-25T10:09:24.090Z,57.29
2018-05-25T10:11:52.535Z,55.79
2018-05-25T10:14:20.961Z,54.81
2018-05-25T10:16:50.164Z,56.87
2018-05-25T10:19:19.362Z,58.62
2018-05-25T10:21:47.806Z,56.41
2018-05-25T10:24:16.227Z,62.05
2018-05-25T10:26:44.671Z,56.38
2018-05-25T10:29:13.079Z,58.83
2018-05-25T10:31:41.532Z,59.95
2018-05-25T10:34:10.712Z,57.37
2018-05-25T10:36:39.148Z,53.67
2018-05-25T10:39:07.609Z,61.33
2018-05-25T10:41:36.061Z,55.82
2018-05-25T10:44:04.491Z,59.29
2018-05-25T10:46:32.906Z,57.77
2018-05-25T10:49:01.352Z,56.11
2018-05-25T10:51:29.793Z,53.97
2018-05-25T10:53:59.002Z,58.71
2018-05-25T10:56:27.407Z,55.40
2018-05-25T10:58:55.862Z,54.12
2018-05-25T11:01:25.051Z,55.64
2018-05-25T11:03:54.258Z,56.57
2018-05-25T11:06:23.439Z,57.25
2018-05-25T11:08:51.876Z,56.54
2018-05-25T11:11:20.300Z,60.49
2018-05-25T11:13:48.760Z,50.41
2018-05-25T11:16:17.187Z,54.14
2018-05-25T11:18:45.636Z,51.70
2018-05-25T11:21:14.062Z,53.94
2018-05-25T11:23:42.624Z,54.09
2018-05-25T11:26:11.044Z,52.07
2018-05-25T11:28:40.260Z,56.24
2018-05-25T11:31:08.671Z,59.39
2018-05-25T11:33:37.099Z,50.50
2018-05-25T11:36:06.313Z,50.42
2018-05-25T11:38:35.525Z,51.86
2018-05-25T11:41:03.950Z,53.04
2018-05-25T11:43:32.396Z,52.56
2018-05-25T11:46:00.835Z,48.83
2018-05-25T11:48:29.279Z,50.99
2018-05-25T11:50:57.686Z,53.20
2018-05-25T11:53:26.131Z,53.28
2018-05-25T11:55:54.556Z,48.24
2018-05-25T11:58:23.016Z,48.68
2018-05-25T12:00:51.486Z,47.68
2018-05-25T12:03:19.936Z,48.78
2018-05-25T12:05:48.358Z,51.76
2018-05-25T12:08:16.868Z,49.58
2018-05-25T12:10:45.281Z,53.42
2018-05-25T12:13:13.731Z,55.55
2018-05-25T12:15:42.135Z,49.08
2018-05-25T12:18:10.596Z,50.00
2018-05-25T12:20:39.022Z,53.70
2018-05-25T12:23:07.470Z,52.19
2018-05-25T12:25:35.895Z,51.82
2018-05-25T12:28:04.335Z,48.39
2018-05-25T12:30:32.752Z,46.29
2018-05-25T12:33:01.207Z,47.17
2018-05-25T12:35:29.637Z,47.42
2018-05-25T12:37:58.054Z,46.45
2018-05-25T12:40:26.497Z,46.73
2018-05-25T12:42:55.711Z,49.19
2018-05-25T12:45:24.156Z,47.20
2018-05-25T12:47:52.589Z,47.74
2018-05-25T12:50:21.031Z,49.19
2018-05-25T12:52:49.438Z,53.75
2018-05-25T12:55:17.891Z,46.79
2018-05-25T12:57:46.307Z,48.83
2018-05-25T13:00:14.774Z,48.16
2018-05-25T13:02:43.221Z,43.23
2018-05-25T13:05:11.660Z,46.51
2018-05-25T13:07:40.073Z,49.22
2018-05-25T13:10:09.283Z,51.60
2018-05-25T13:12:37.815Z,48.28
2018-05-25T13:15:06.259Z,48.53
2018-05-25T13:17:34.733Z,46.75
2018-05-25T13:20:03.967Z,47.93
2018-05-25T13:22:32.411Z,48.75
2018-05-25T13:25:01.624Z,44.29
2018-05-25T13:27:30.909Z,51.86
2018-05-25T13:29:59.358Z,44.98
2018-05-25T13:32:27.849Z,46.40
2018-05-25T13:34:56.293Z,43.45
2018-05-25T13:37:24.721Z,44.09
2018-05-25T13:39:53.907Z,45.85
2018-05-25T13:42:22.382Z,47.35
2018-05-25T13:44:50.847Z,46.30
2018-05-25T13:47:19.268Z,48.65
2018-05-25T13:49:47.733Z,48.00
2018-05-25T13:52:16.165Z,49.23
2018-05-25T13:54:44.610Z,50.12
2018-05-25T13:57:13.044Z,49.29
2018-05-25T13:59:42.263Z,48.58
2018-05-25T14:02:11.443Z,47.91
2018-05-25T14:04:39.889Z,49.73
2018-05-25T14:07:08.304Z,47.61
2018-05-25T14:09:36.760Z,47.73
2018-05-25T14:12:05.189Z,48.07
2018-05-25T14:14:34.404Z,47.20
2018-05-25T14:17:03.626Z,45.91
2018-05-25T14:19:32.067Z,46.83
2018-05-25T14:22:00.483Z,46.17
2018-05-25T14:24:28.922Z,48.54
2018-05-25T14:26:57.338Z,44.03
2018-05-25T14:29:26.573Z,42.73
2018-05-25T14:31:55.007Z,44.48
2018-05-25T14:34:23.422Z,46.50
2018-05-25T14:36:51.870Z,44.21
2018-05-25T14:39:20.293Z,42.48
2018-05-25T14:41:48.728Z,46.90
2018-05-25T14:44:17.134Z,45.16
2018-05-25T14:46:45.572Z,44.05
2018-05-25T14:49:13.995Z,43.37
2018-05-25T14:51:42.436Z,43.51
2018-05-25T14:54:11.115Z,43.04
2018-05-25T14:56:39.578Z,44.46
2018-05-25T14:59:08.759Z,42.98
2018-05-25T15:01:37.212Z,45.16
2018-05-25T15:04:05.638Z,44.81
2018-05-25T15:06:34.863Z,45.82
2018-05-25T15:09:03.314Z,43.48
2018-05-25T15:11:31.751Z,42.96
2018-05-25T15:14:00.187Z,42.79
2018-05-25T15:16:29.468Z,43.54
2018-05-25T15:18:57.875Z,46.30
2018-05-25T15:21:27.104Z,44.96
2018-05-25T15:23:55.536Z,45.23
2018-05-25T15:26:23.980Z,42.22
2018-05-25T15:28:52.394Z,41.97
2018-05-25T15:31:20.862Z,43.73
2018-05-25T15:33:49.275Z,43.23
2018-05-25T15:36:17.721Z,44.21
2018-05-25T15:38:46.133Z,44.66
2018-05-25T15:41:14.577Z,45.56
2018-05-25T15:43:43.005Z,44.10
2018-05-25T15:46:11.473Z,42.92
2018-05-25T15:48:39.895Z,44.60
2018-05-25T15:51:08.376Z,43.55
2018-05-25T15:53:36.814Z,44.00
2018-05-25T15:56:05.253Z,44.59
2018-05-25T15:58:33.659Z,44.12
2018-05-25T16:01:02.892Z,44.83
2018-05-25T16:03:31.320Z,42.37
2018-05-25T16:05:59.763Z,44.48
2018-05-25T16:08:28.181Z,44.87
2018-05-25T16:10:56.621Z,44.96
2018-05-25T16:13:25.033Z,45.05
2018-05-25T16:15:53.486Z,44.58
2018-05-25T16:18:21.893Z,41.80
2018-05-25T16:20:50.321Z,42.93
2018-05-25T16:23:19.532Z,43.55
2018-05-25T16:25:48.722Z,44.69
2018-05-25T16:28:17.172Z,42.74
2018-05-25T16:30:45.580Z,42.13
2018-05-25T16:33:14.056Z,44.26
2018-05-25T16:35:42.483Z,46.59
2018-05-25T16:38:11.683Z,46.37
2018-05-25T16:40:40.878Z,44.10
2018-05-25T16:43:10.081Z,44.24
2018-05-25T16:45:39.288Z,44.98
2018-05-25T16:48:08.497Z,45.03
2018-05-25T16:50:36.918Z,44.24
2018-05-25T16:53:05.355Z,44.33
2018-05-25T16:55:34.534Z,44.92
2018-05-25T16:58:02.973Z,43.57
2018-05-25T17:00:31.388Z,44.11
2018-05-25T17:02:59.836Z,44.06
2018-05-25T17:05:28.240Z,44.02
2018-05-25T17:07:56.720Z,42.92
2018-05-25T17:10:25.139Z,44.32
2018-05-25T17:12:53.640Z,45.75
2018-05-25T17:15:22.134Z,43.16
2018-05-25T17:17:51.546Z,44.30
2018-05-25T17:20:19.972Z,45.13
2018-05-25T17:22:48.547Z,46.91
2018-05-25T17:25:17.067Z,46.48
2018-05-25T17:27:45.528Z,46.79
2018-05-25T17:30:14.050Z,45.81
2018-05-25T17:32:43.391Z,45.70
2018-05-25T17:35:11.816Z,46.98
2018-05-25T17:37:40.334Z,46.40
2018-05-25T17:40:08.912Z,45.69
2018-05-25T17:42:37.560Z,47.69
2018-05-25T17:45:05.983Z,47.74
2018-05-25T17:47:35.367Z,48.26
2018-05-25T17:50:03.894Z,47.62
2018-05-25T17:52:32.456Z,48.10
2018-05-25T17:55:00.928Z,49.06
2018-05-25T17:57:29.494Z,50.67
2018-05-25T17:59:57.941Z,50.68
2018-05-25T18:02:27.220Z,50.71
2018-05-25T18:04:55.636Z,51.70
2018-05-25T18:07:24.928Z,51.67
2018-05-25T18:09:53.372Z,52.51
2018-05-25T18:12:21.831Z,53.20
2018-05-25T18:14:50.248Z,53.28
2018-05-25T18:17:18.685Z,53.61
2018-05-25T18:19:47.116Z,53.93
2018-05-25T18:22:15.554Z,53.54
2018-05-25T18:24:44.066Z,54.14
2018-05-25T18:27:12.507Z,53.83
2018-05-25T18:29:41.711Z,54.83
2018-05-25T18:32:10.903Z,55.01
2018-05-25T18:34:39.349Z,55.59
2018-05-25T18:37:07.766Z,55.67
2018-05-25T18:39:37.006Z,55.86
2018-05-25T18:42:05.445Z,55.94
2018-05-25T18:44:33.891Z,56.16
2018-05-25T18:47:02.289Z,56.82
2018-05-25T18:49:30.732Z,56.66
2018-05-25T18:51:59.156Z,57.14
2018-05-25T18:54:33.145Z,57.41
2018-05-25T18:57:01.545Z,58.85
2018-05-25T18:59:29.992Z,60.05
2018-05-25T19:01:59.166Z,60.73
2018-05-25T19:04:27.615Z,61.34
2018-05-25T19:06:56.034Z,61.82
2018-05-25T19:09:24.476Z,62.75
2018-05-25T19:11:52.894Z,63.27
2018-05-25T19:14:21.342Z,63.84
2018-05-25T19:16:49.762Z,63.89
2018-05-25T19:19:18.228Z,65.07
2018-05-25T19:21:46.662Z,66.30
2018-05-25T19:24:15.874Z,66.25
2018-05-25T19:26:44.292Z,66.47
2018-05-25T19:29:12.746Z,67.31
2018-05-25T19:31:41.156Z,67.41
2018-05-25T19:34:09.591Z,67.72
2018-05-25T19:36:38.776Z,68.04
2018-05-25T19:39:07.234Z,68.55
2018-05-25T19:41:35.670Z,69.17
2018-05-25T19:44:04.929Z,69.89
2018-05-25T19:46:33.343Z,70.27
2018-05-25T19:49:01.799Z,70.55
2018-05-25T19:51:30.206Z,70.60
2018-05-25T19:53:58.639Z,70.57
2018-05-25T19:56:27.112Z,70.58
2018-05-25T19:58:55.560Z,70.66
2018-05-25T20:01:23.978Z,70.81
2018-05-25T20:03:52.417Z,71.13
2018-05-25T20:06:20.841Z,71.18
2018-05-25T20:08:50.076Z,71.39
2018-05-25T20:11:19.428Z,72.55
2018-05-25T20:13:47.863Z,72.22
2018-05-25T20:16:16.302Z,72.44
2018-05-25T20:18:45.525Z,72.23
2018-05-25T20:21:13.954Z,72.70
2018-05-25T20:23:42.417Z,72.75
2018-05-25T20:26:10.854Z,72.84
2018-05-25T20:28:40.070Z,73.27
2018-05-25T20:31:09.271Z,73.39
2018-05-25T20:33:38.462Z,73.65
2018-05-25T20:36:07.681Z,74.11
2018-05-25T20:38:36.874Z,74.36
2018-05-25T20:41:06.101Z,74.81
2018-05-25T20:43:34.507Z,74.72
2018-05-25T20:46:02.944Z,75.02
2018-05-25T20:48:32.116Z,75.32
2018-05-25T20:51:00.554Z,75.41
2018-05-25T20:53:28.978Z,75.43
2018-05-25T20:55:57.434Z,75.75
2018-05-25T20:58:25.857Z,76.25
2018-05-25T21:00:54.298Z,76.24
2018-05-25T21:03:22.704Z,75.80
2018-05-25T21:05:51.168Z,75.83
2018-05-25T21:08:19.575Z,75.81
2018-05-25T21:10:48.019Z,76.06
2018-05-25T21:13:17.196Z,76.26
2018-05-25T21:15:45.647Z,76.41
2018-05-25T21:18:14.051Z,76.45
2018-05-25T21:20:42.556Z,76.65
2018-05-25T21:23:11.762Z,77.15
2018-05-25T21:25:41.018Z,77.29
2018-05-25T21:28:09.402Z,77.17
2018-05-25T21:30:37.845Z,77.47
2018-05-25T21:33:07.032Z,77.01
2018-05-25T21:35:36.253Z,76.85
2018-05-25T21:38:04.677Z,77.26
2018-05-25T21:40:33.114Z,77.44
2018-05-25T21:43:01.538Z,77.67
2018-05-25T21:45:29.981Z,78.05
2018-05-25T21:47:59.170Z,78.17
2018-05-25T21:50:28.404Z,78.13
2018-05-25T21:52:56.815Z,77.78
2018-05-25T21:55:25.268Z,77.69
2018-05-25T21:57:53.972Z,77.94
2018-05-25T22:00:22.423Z,77.94
2018-05-25T22:02:51.608Z,78.15
2018-05-25T22:05:20.057Z,78.34
2018-05-25T22:07:48.518Z,78.62
2018-05-25T22:10:16.974Z,78.85
2018-05-25T22:12:45.390Z,78.38
2018-05-25T22:15:13.823Z,77.84
2018-05-25T22:17:42.236Z,77.17
2018-05-25T22:20:11.458Z,76.87
2018-05-25T22:22:39.873Z,76.63
2018-05-25T22:25:08.324Z,76.49
2018-05-25T22:27:36.738Z,76.49
2018-05-25T22:30:05.188Z,76.32
2018-05-25T22:32:33.683Z,75.89
2018-05-25T22:35:02.134Z,75.76
2018-05-25T22:37:30.655Z,75.70
2018-05-25T22:39:59.086Z,74.94
2018-05-25T22:42:45.408Z,74.34
2018-05-25T22:45:32.487Z,73.63
2018-05-25T22:48:18.787Z,73.79
2018-05-25T22:51:05.163Z,73.14
2018-05-25T22:53:38.394Z,72.43
2018-05-25T22:56:07.596Z,71.95
2018-05-25T22:58:36.790Z,71.56
2018-05-25T23:01:08.928Z,71.39
2018-05-25T23:03:37.365Z,71.52
2018-05-25T23:06:05.851Z,71.94
2018-05-25T23:08:35.067Z,71.56
2018-05-25T23:11:03.516Z,71.69
2018-05-25T23:13:32.703Z,71.53
2018-05-25T23:16:01.160Z,71.36
2018-05-25T23:18:29.629Z,71.23
2018-05-25T23:20:58.043Z,71.06
2018-05-25T23:23:26.500Z,71.57
2018-05-25T23:25:54.919Z,71.35
2018-05-25T23:28:23.367Z,71.39
2018-05-25T23:30:51.787Z,70.61
2018-05-25T23:33:20.235Z,70.94
2018-05-25T23:35:48.664Z,71.37
2018-05-25T23:38:17.104Z,71.53
2018-05-25T23:40:45.518Z,70.96
2018-05-25T23:43:13.981Z,71.16
2018-05-25T23:45:42.400Z,71.42
2018-05-25T23:48:10.858Z,71.57
2018-05-25T23:50:39.290Z,71.74
2018-05-25T23:53:08.503Z,71.54
2018-05-25T23:55:37.687Z,71.58
2018-05-25T23:58:06.146Z,71.33
